Time;durP1;ratioP1;P1;durP2;ratioP2;P2;SDS_P1;SDS_P2;PMS_P1;PMS_P2;Temp;Humidity;BMP_temperature;BMP_pressure;BME280_temperature;BME280_humidity;BME280_pressure;Samples;Min_cycle;Max_cycle;Signal;HPM_P1;HPM_P2
2023/09/21 00:01:38;;;;;;;15.68;7.95;;;;;;;;;;5087165;28;20273;-37
2023/09/21 00:04:05;;;;;;;11.23;8.40;;;;;;;;;;5086439;28;20393;-43
2023/09/21 00:06:32;;;;;;;17.75;7.45;;;;;;;;;;5083512;28;20101;-42
2023/09/21 00:08:59;;;;;;;18.90;7.90;;;;;;;;;;5076326;28;20039;-51
2023/09/21 00:11:26;;;;;;;24.90;9.38;;;;;;;;;;5062780;28;20091;-50
2023/09/21 00:13:53;;;;;;;23.92;8.48;;;;;;;;;;5063239;28;20025;-49
2023/09/21 00:16:24;;;;;;;15.02;7.88;;;;;;;;;;5066973;28;20016;-39
2023/09/21 00:18:52;;;;;;;17.52;8.55;;;;;;;;;;5073037;28;20033;-39
2023/09/21 00:21:18;;;;;;;38.80;16.27;;;;;;;;;;5072105;28;20024;-37
2023/09/21 00:23:47;;;;;;;58.70;17.85;;;;;;;;;;5074284;28;20399;-41
2023/09/21 00:26:15;;;;;;;37.78;15.95;;;;;;;;;;5068061;28;20048;-47
2023/09/21 00:28:43;;;;;;;39.35;16.60;;;;;;;;;;5084153;28;20029;-43
2023/09/21 00:31:10;;;;;;;32.72;15.82;;;;;;;;;;5084074;28;20032;-40
2023/09/21 00:33:38;;;;;;;28.00;13.60;;;;;;;;;;5083813;28;20036;-40
2023/09/21 00:36:05;;;;;;;21.65;11.00;;;;;;;;;;5084108;28;20075;-40
2023/09/21 00:38:32;;;;;;;15.88;9.85;;;;;;;;;;5084533;28;20100;-40
2023/09/21 00:41:04;;;;;;;17.35;9.82;;;;;;;;;;5083889;28;20251;-39
2023/09/21 00:43:30;;;;;;;20.95;11.75;;;;;;;;;;5084544;28;20020;-40
2023/09/21 00:45:58;;;;;;;23.48;11.98;;;;;;;;;;5082624;28;20040;-40
2023/09/21 00:48:33;;;;;;;16.70;9.80;;;;;;;;;;5082248;28;20228;-46
2023/09/21 00:51:09;;;;;;;19.42;7.93;;;;;;;;;;5082212;28;20032;-45
2023/09/21 00:53:39;;;;;;;24.23;12.77;;;;;;;;;;5081909;28;20096;-46
2023/09/21 00:56:11;;;;;;;18.45;9.43;;;;;;;;;;5082562;28;20029;-45
2023/09/21 00:58:42;;;;;;;19.98;7.88;;;;;;;;;;5082396;28;20070;-48
2023/09/21 01:01:18;;;;;;;13.93;7.15;;;;;;;;;;5083337;28;20066;-40
2023/09/21 01:03:45;;;;;;;15.68;6.75;;;;;;;;;;5083953;28;20048;-39
2023/09/21 01:06:16;;;;;;;12.02;6.05;;;;;;;;;;5083351;28;20084;-41
2023/09/21 01:08:43;;;;;;;22.50;6.07;;;;;;;;;;5084136;28;20040;-43
2023/09/21 01:11:14;;;;;;;10.43;5.63;;;;;;;;;;5083617;28;20026;-40
2023/09/21 01:13:43;;;;;;;9.90;5.55;;;;;;;;;;5083915;28;20074;-42
2023/09/21 01:16:15;;;;;;;12.48;5.57;;;;;;;;;;5083552;28;20028;-44
2023/09/21 01:18:42;;;;;;;11.52;5.82;;;;;;;;;;5083527;28;20032;-43
2023/09/21 01:21:10;;;;;;;9.18;4.95;;;;;;;;;;5083341;28;20059;-43
2023/09/21 01:23:37;;;;;;;30.55;6.47;;;;;;;;;;5096511;28;20036;-46
2023/09/21 01:26:04;;;;;;;20.92;5.93;;;;;;;;;;5090979;28;20312;-38
2023/09/21 01:28:31;;;;;;;14.25;5.35;;;;;;;;;;5084019;28;20247;-48
2023/09/21 01:30:58;;;;;;;12.02;4.88;;;;;;;;;;5082738;28;20027;-42
2023/09/21 01:33:25;;;;;;;8.45;4.82;;;;;;;;;;5083298;28;20036;-40
2023/09/21 01:35:51;;;;;;;10.02;4.97;;;;;;;;;;5083529;28;20036;-37
2023/09/21 01:38:19;;;;;;;19.45;5.22;;;;;;;;;;5084013;28;20025;-41
2023/09/21 01:40:46;;;;;;;6.93;4.90;;;;;;;;;;5083329;28;20032;-45
2023/09/21 01:43:15;;;;;;;8.65;4.93;;;;;;;;;;5083812;28;20036;-46
2023/09/21 01:45:42;;;;;;;10.57;4.47;;;;;;;;;;5083057;28;20032;-41
2023/09/21 01:48:09;;;;;;;6.93;4.32;;;;;;;;;;5083774;28;20225;-42
2023/09/21 01:50:49;;;;;;;6.88;4.22;;;;;;;;;;5083576;28;20142;-44
2023/09/21 01:53:19;;;;;;;7.35;4.93;;;;;;;;;;5083703;28;20022;-41
2023/09/21 01:55:47;;;;;;;7.05;4.65;;;;;;;;;;5075491;28;20040;-46
2023/09/21 01:58:14;;;;;;;7.82;4.40;;;;;;;;;;5094888;28;20020;-40
2023/09/21 02:00:42;;;;;;;6.30;4.95;;;;;;;;;;5103206;28;20065;-40
2023/09/21 02:03:12;;;;;;;8.73;4.47;;;;;;;;;;5087218;28;20052;-40
2023/09/21 02:05:42;;;;;;;8.95;4.20;;;;;;;;;;5083262;28;20111;-42
2023/09/21 02:08:12;;;;;;;6.72;4.05;;;;;;;;;;5067952;28;20040;-42
2023/09/21 02:10:40;;;;;;;7.90;4.25;;;;;;;;;;5063156;28;20052;-40
2023/09/21 02:13:07;;;;;;;7.00;4.40;;;;;;;;;;5078303;28;20031;-42
2023/09/21 02:15:37;;;;;;;9.63;4.50;;;;;;;;;;5082432;28;20093;-41
2023/09/21 02:18:05;;;;;;;5.60;4.82;;;;;;;;;;5071016;28;20029;-41
2023/09/21 02:20:32;;;;;;;5.40;4.53;;;;;;;;;;5066589;28;20212;-46
2023/09/21 02:23:00;;;;;;;5.60;4.13;;;;;;;;;;5081034;28;20055;-48
2023/09/21 02:25:30;;;;;;;7.07;4.00;;;;;;;;;;5086216;28;20032;-46
2023/09/21 02:27:57;;;;;;;11.00;5.68;;;;;;;;;;5086804;28;20020;-42
2023/09/21 02:30:24;;;;;;;12.30;6.60;;;;;;;;;;5083355;28;20323;-40
2023/09/21 02:32:52;;;;;;;13.98;7.07;;;;;;;;;;5086683;28;20032;-45
2023/09/21 02:35:23;;;;;;;13.48;6.90;;;;;;;;;;5086344;28;20021;-40
2023/09/21 02:37:50;;;;;;;10.18;6.80;;;;;;;;;;5086496;28;20024;-40
2023/09/21 02:40:19;;;;;;;10.73;6.03;;;;;;;;;;5086218;28;20028;-43
2023/09/21 02:42:49;;;;;;;8.40;5.25;;;;;;;;;;5086404;28;20079;-41
2023/09/21 02:45:18;;;;;;;9.05;4.97;;;;;;;;;;5085891;28;20063;-43
2023/09/21 02:47:45;;;;;;;12.07;6.43;;;;;;;;;;5086762;28;20189;-42
2023/09/21 02:50:14;;;;;;;13.20;6.38;;;;;;;;;;5094513;28;20028;-48
2023/09/21 02:52:54;;;;;;;14.27;7.38;;;;;;;;;;5094098;28;20036;-40
2023/09/21 02:55:22;;;;;;;12.43;6.60;;;;;;;;;;5075595;28;20106;-41
2023/09/21 02:57:55;;;;;;;10.20;5.88;;;;;;;;;;5086034;28;20024;-41
2023/09/21 03:00:34;;;;;;;8.98;4.85;;;;;;;;;;5078238;28;20063;-39
2023/09/21 03:03:04;;;;;;;6.43;4.60;;;;;;;;;;5073701;28;20240;-46
2023/09/21 03:05:33;;;;;;;5.50;4.30;;;;;;;;;;5068757;28;20047;-40
2023/09/21 03:08:13;;;;;;;7.35;4.25;;;;;;;;;;5066086;28;20028;-39
2023/09/21 03:10:52;;;;;;;4.93;4.10;;;;;;;;;;5068859;28;20036;-41
2023/09/21 03:13:19;;;;;;;5.13;4.07;;;;;;;;;;5073080;28;20365;-44
2023/09/21 03:15:53;;;;;;;7.82;4.13;;;;;;;;;;5065603;28;20067;-40
2023/09/21 03:18:20;;;;;;;7.15;3.95;;;;;;;;;;5083808;28;20193;-40
2023/09/21 03:20:48;;;;;;;6.50;4.20;;;;;;;;;;5089122;28;20027;-42
2023/09/21 03:23:16;;;;;;;7.10;4.40;;;;;;;;;;5082189;28;20043;-41
2023/09/21 03:25:44;;;;;;;7.30;4.40;;;;;;;;;;5065406;28;20083;-41
2023/09/21 03:28:15;;;;;;;6.70;3.90;;;;;;;;;;5065546;28;20025;-41
2023/09/21 03:30:42;;;;;;;4.45;3.92;;;;;;;;;;5065297;28;20352;-44
2023/09/21 03:33:09;;;;;;;4.57;4.00;;;;;;;;;;5065489;28;20037;-44
2023/09/21 03:35:37;;;;;;;4.78;3.63;;;;;;;;;;5065249;28;20051;-47
2023/09/21 03:38:12;;;;;;;8.73;3.72;;;;;;;;;;5074590;28;20033;-47
2023/09/21 03:40:39;;;;;;;6.85;3.45;;;;;;;;;;5085099;28;20033;-42
2023/09/21 03:43:15;;;;;;;3.70;3.40;;;;;;;;;;5085370;28;20033;-40
2023/09/21 03:45:43;;;;;;;3.97;3.53;;;;;;;;;;5085159;28;20060;-39
2023/09/21 03:48:10;;;;;;;5.85;3.85;;;;;;;;;;5092798;28;20204;-42
2023/09/21 03:50:38;;;;;;;6.40;3.80;;;;;;;;;;5105435;28;20032;-42
2023/09/21 03:53:05;;;;;;;8.88;4.10;;;;;;;;;;5105304;28;20036;-54
2023/09/21 03:55:32;;;;;;;7.25;3.55;;;;;;;;;;5104936;28;20262;-42
2023/09/21 03:57:58;;;;;;;4.88;3.75;;;;;;;;;;5105290;28;20208;-45
2023/09/21 04:00:29;;;;;;;5.53;3.40;;;;;;;;;;5105119;28;20016;-39
2023/09/21 04:02:57;;;;;;;4.93;3.70;;;;;;;;;;5089911;28;20051;-41
2023/09/21 04:05:27;;;;;;;5.43;3.55;;;;;;;;;;5084593;28;20040;-40
2023/09/21 04:07:54;;;;;;;5.03;3.47;;;;;;;;;;5085044;28;20286;-40
2023/09/21 04:10:20;;;;;;;4.97;3.53;;;;;;;;;;5083831;28;20033;-41
2023/09/21 04:12:47;;;;;;;6.00;3.75;;;;;;;;;;5084655;28;20039;-49
2023/09/21 04:15:14;;;;;;;6.13;3.92;;;;;;;;;;5084449;28;20016;-54
2023/09/21 04:17:41;;;;;;;5.10;3.70;;;;;;;;;;5084599;28;20024;-40
2023/09/21 04:20:12;;;;;;;4.72;3.65;;;;;;;;;;5084393;28;20048;-41
2023/09/21 04:22:40;;;;;;;5.25;3.72;;;;;;;;;;5081124;28;20029;-41
2023/09/21 04:25:08;;;;;;;6.10;3.55;;;;;;;;;;5084139;28;20343;-44
2023/09/21 04:27:36;;;;;;;4.65;3.40;;;;;;;;;;5084503;28;20027;-42
2023/09/21 04:30:03;;;;;;;9.00;3.80;;;;;;;;;;5097957;28;20028;-40
2023/09/21 04:32:30;;;;;;;7.63;3.90;;;;;;;;;;5104483;28;20032;-48
2023/09/21 04:34:58;;;;;;;6.82;3.42;;;;;;;;;;5104495;28;20036;-44
2023/09/21 04:37:25;;;;;;;3.85;3.38;;;;;;;;;;5104643;28;20016;-43
2023/09/21 04:39:51;;;;;;;6.72;3.70;;;;;;;;;;5099873;28;20065;-42
2023/09/21 04:42:18;;;;;;;6.47;4.07;;;;;;;;;;5089887;28;20096;-39
2023/09/21 04:44:44;;;;;;;4.97;3.80;;;;;;;;;;5084072;28;20083;-40
2023/09/21 04:47:11;;;;;;;5.90;3.72;;;;;;;;;;5082329;28;20055;-40
2023/09/21 04:49:38;;;;;;;4.97;3.35;;;;;;;;;;5081782;28;20028;-43
2023/09/21 04:52:05;;;;;;;4.45;3.75;;;;;;;;;;5084753;28;20027;-43
2023/09/21 04:54:32;;;;;;;4.90;3.80;;;;;;;;;;5081275;28;20043;-45
2023/09/21 04:56:59;;;;;;;8.25;4.00;;;;;;;;;;5078063;28;20028;-42
2023/09/21 04:59:25;;;;;;;4.45;3.58;;;;;;;;;;5082343;28;20020;-40
2023/09/21 05:01:53;;;;;;;5.85;3.65;;;;;;;;;;5081158;28;20024;-42
2023/09/21 05:04:21;;;;;;;5.88;3.92;;;;;;;;;;5083060;28;20281;-53
2023/09/21 05:06:47;;;;;;;4.60;3.45;;;;;;;;;;5082855;28;20028;-47
2023/09/21 05:09:15;;;;;;;5.63;3.70;;;;;;;;;;5071405;28;20158;-46
2023/09/21 05:11:41;;;;;;;4.07;3.30;;;;;;;;;;5075767;28;20066;-41
2023/09/21 05:14:13;;;;;;;5.32;4.07;;;;;;;;;;5073029;28;20095;-49
2023/09/21 05:16:41;;;;;;;6.30;4.88;;;;;;;;;;5074580;28;20025;-42
2023/09/21 05:19:09;;;;;;;8.75;6.40;;;;;;;;;;5075501;28;20032;-46
2023/09/21 05:21:36;;;;;;;11.82;8.07;;;;;;;;;;5075146;28;20383;-41
2023/09/21 05:24:03;;;;;;;19.63;10.40;;;;;;;;;;5065305;28;20386;-42
2023/09/21 05:26:30;;;;;;;21.23;10.02;;;;;;;;;;5076654;28;20095;-44
2023/09/21 05:28:57;;;;;;;23.17;10.10;;;;;;;;;;5088936;28;20087;-50
2023/09/21 05:31:24;;;;;;;16.02;9.50;;;;;;;;;;5088485;28;20020;-45
2023/09/21 05:33:51;;;;;;;11.25;7.57;;;;;;;;;;5075229;28;20033;-42
2023/09/21 05:36:18;;;;;;;11.20;6.38;;;;;;;;;;5071029;28;20021;-48
2023/09/21 05:38:45;;;;;;;8.00;5.15;;;;;;;;;;5075493;28;20264;-49
2023/09/21 05:41:11;;;;;;;7.13;4.57;;;;;;;;;;5071253;28;20045;-53
2023/09/21 05:43:40;;;;;;;5.80;4.47;;;;;;;;;;5073990;28;20028;-48
2023/09/21 05:46:06;;;;;;;6.40;4.47;;;;;;;;;;5074708;28;20340;-41
2023/09/21 05:48:33;;;;;;;5.70;4.50;;;;;;;;;;5079372;28;20047;-44
2023/09/21 05:51:01;;;;;;;4.88;4.32;;;;;;;;;;5075133;28;20017;-42
2023/09/21 05:53:30;;;;;;;5.03;3.95;;;;;;;;;;5067273;28;20041;-41
2023/09/21 05:55:57;;;;;;;10.93;4.53;;;;;;;;;;5074904;28;20035;-41
2023/09/21 05:58:24;;;;;;;6.35;4.97;;;;;;;;;;5079617;28;20051;-50
2023/09/21 06:00:52;;;;;;;8.05;5.03;;;;;;;;;;5079109;28;20143;-41
2023/09/21 06:03:18;;;;;;;7.63;6.15;;;;;;;;;;5078182;28;20105;-42
2023/09/21 06:05:45;;;;;;;10.82;7.15;;;;;;;;;;5073321;28;20092;-44
2023/09/21 06:08:12;;;;;;;9.52;6.80;;;;;;;;;;5080100;28;20174;-48
2023/09/21 06:10:39;;;;;;;9.77;7.03;;;;;;;;;;5077997;28;20063;-45
2023/09/21 06:13:07;;;;;;;10.05;6.20;;;;;;;;;;5076094;28;20024;-42
2023/09/21 06:15:34;;;;;;;8.20;5.65;;;;;;;;;;5071728;28;20032;-50
2023/09/21 06:18:01;;;;;;;8.82;5.47;;;;;;;;;;5078143;28;20033;-41
2023/09/21 06:20:29;;;;;;;10.82;5.28;;;;;;;;;;5074918;28;20088;-49
2023/09/21 06:22:55;;;;;;;7.95;5.30;;;;;;;;;;5078886;28;20029;-40
2023/09/21 06:25:22;;;;;;;9.18;4.85;;;;;;;;;;5077742;28;20037;-43
2023/09/21 06:27:49;;;;;;;8.50;4.55;;;;;;;;;;5078688;28;20028;-49
2023/09/21 06:30:15;;;;;;;10.82;5.10;;;;;;;;;;5077268;28;20104;-50
2023/09/21 06:32:42;;;;;;;10.20;4.85;;;;;;;;;;5077803;28;20036;-41
2023/09/21 06:35:09;;;;;;;11.80;5.57;;;;;;;;;;5077893;28;20029;-43
2023/09/21 06:37:36;;;;;;;8.38;5.60;;;;;;;;;;5078581;28;20040;-41
2023/09/21 06:40:06;;;;;;;14.90;6.90;;;;;;;;;;5076724;28;20025;-49
2023/09/21 06:42:33;;;;;;;12.55;7.50;;;;;;;;;;5075913;28;20209;-41
2023/09/21 06:45:00;;;;;;;17.17;10.02;;;;;;;;;;5074143;28;20092;-44
2023/09/21 06:47:28;;;;;;;15.63;9.70;;;;;;;;;;5087451;28;20086;-50
2023/09/21 06:49:55;;;;;;;20.50;10.43;;;;;;;;;;5077505;28;20024;-51
2023/09/21 06:52:22;;;;;;;16.30;8.77;;;;;;;;;;5074352;28;20082;-53
2023/09/21 06:54:49;;;;;;;17.42;9.38;;;;;;;;;;5079596;28;20033;-50
2023/09/21 06:57:23;;;;;;;18.63;10.07;;;;;;;;;;5077098;28;20256;-41
2023/09/21 06:59:51;;;;;;;15.45;9.82;;;;;;;;;;5072051;28;20228;-46
2023/09/21 07:02:17;;;;;;;13.52;8.73;;;;;;;;;;5081611;28;20051;-42
2023/09/21 07:04:45;;;;;;;10.38;7.70;;;;;;;;;;5075133;28;20347;-50
2023/09/21 07:07:11;;;;;;;14.10;7.43;;;;;;;;;;5075441;28;20051;-42
2023/09/21 07:09:38;;;;;;;11.05;7.15;;;;;;;;;;5073368;28;20029;-41
2023/09/21 07:12:08;;;;;;;11.52;7.28;;;;;;;;;;5072396;28;20039;-41
2023/09/21 07:14:36;;;;;;;10.70;7.88;;;;;;;;;;5074192;28;20198;-44
2023/09/21 07:17:03;;;;;;;13.70;8.10;;;;;;;;;;5065552;28;20024;-45
2023/09/21 07:19:29;;;;;;;11.68;7.47;;;;;;;;;;5076166;28;20040;-50
2023/09/21 07:21:56;;;;;;;9.27;6.93;;;;;;;;;;5071886;28;20300;-44
2023/09/21 07:24:23;;;;;;;11.02;6.80;;;;;;;;;;5075728;28;20033;-40
2023/09/21 07:26:50;;;;;;;9.50;5.78;;;;;;;;;;5074258;28;20217;-41
2023/09/21 07:29:17;;;;;;;9.05;5.82;;;;;;;;;;5076752;28;20028;-44
2023/09/21 07:31:44;;;;;;;6.97;5.55;;;;;;;;;;5065533;28;20061;-41
2023/09/21 07:34:11;;;;;;;7.63;4.90;;;;;;;;;;5075706;28;20052;-50
2023/09/21 07:36:39;;;;;;;6.88;4.78;;;;;;;;;;5063689;28;20076;-53
2023/09/21 07:39:10;;;;;;;4.95;4.38;;;;;;;;;;5065854;28;20216;-42
2023/09/21 07:41:39;;;;;;;7.63;4.85;;;;;;;;;;5074161;28;20318;-53
2023/09/21 07:44:08;;;;;;;5.97;4.90;;;;;;;;;;5075095;28;20040;-41
2023/09/21 07:46:37;;;;;;;6.93;4.80;;;;;;;;;;5074114;28;20198;-50
2023/09/21 07:49:04;;;;;;;6.80;4.53;;;;;;;;;;5074371;28;20352;-41
2023/09/21 07:51:32;;;;;;;4.53;4.13;;;;;;;;;;5073475;28;20063;-44
2023/09/21 07:54:00;;;;;;;8.80;4.63;;;;;;;;;;5074855;28;20340;-45
2023/09/21 07:56:28;;;;;;;4.82;4.35;;;;;;;;;;5077469;28;20033;-54
2023/09/21 07:58:55;;;;;;;6.93;4.07;;;;;;;;;;5076522;28;20029;-39
2023/09/21 08:01:26;;;;;;;5.30;4.20;;;;;;;;;;5072745;28;20295;-41
2023/09/21 08:03:56;;;;;;;7.13;4.47;;;;;;;;;;5071086;28;20044;-41
2023/09/21 08:06:22;;;;;;;5.07;4.53;;;;;;;;;;5074137;28;20063;-44
2023/09/21 08:08:52;;;;;;;7.32;4.15;;;;;;;;;;5076681;28;20266;-48
2023/09/21 08:11:19;;;;;;;4.32;3.92;;;;;;;;;;5073503;28;20028;-41
2023/09/21 08:13:45;;;;;;;4.93;4.43;;;;;;;;;;5075103;28;20126;-49
2023/09/21 08:16:13;;;;;;;8.40;4.10;;;;;;;;;;5075226;28;20326;-41
2023/09/21 08:18:39;;;;;;;4.80;4.00;;;;;;;;;;5077699;28;20066;-41
2023/09/21 08:21:09;;;;;;;7.80;3.78;;;;;;;;;;5076611;28;20028;-39
2023/09/21 08:23:42;;;;;;;5.63;3.83;;;;;;;;;;5079937;28;20032;-41
2023/09/21 08:26:09;;;;;;;7.85;4.53;;;;;;;;;;5079104;28;20031;-53
2023/09/21 08:28:35;;;;;;;5.88;4.40;;;;;;;;;;5083097;28;20060;-40
2023/09/21 08:31:03;;;;;;;4.85;3.90;;;;;;;;;;5082821;28;20220;-41
2023/09/21 08:33:30;;;;;;;4.80;4.30;;;;;;;;;;5082694;28;20035;-44
2023/09/21 08:35:56;;;;;;;5.78;4.03;;;;;;;;;;5078707;28;20051;-41
2023/09/21 08:38:23;;;;;;;5.75;3.92;;;;;;;;;;5082763;28;20324;-41
2023/09/21 08:40:53;;;;;;;5.05;3.97;;;;;;;;;;5080913;28;20029;-42
2023/09/21 08:43:24;;;;;;;4.88;4.15;;;;;;;;;;5081704;28;20216;-40
2023/09/21 08:45:52;;;;;;;4.90;4.32;;;;;;;;;;5081882;28;20033;-40
2023/09/21 08:48:22;;;;;;;4.60;4.20;;;;;;;;;;5082384;28;20019;-40
2023/09/21 08:50:52;;;;;;;5.90;4.25;;;;;;;;;;5081583;28;20037;-47
2023/09/21 08:53:20;;;;;;;6.47;4.00;;;;;;;;;;5082658;28;20043;-45
2023/09/21 08:55:51;;;;;;;4.28;3.75;;;;;;;;;;5077310;28;20062;-43
2023/09/21 08:58:23;;;;;;;4.55;3.90;;;;;;;;;;5082603;28;20031;-39
2023/09/21 09:00:56;;;;;;;7.35;4.40;;;;;;;;;;5080161;28;20024;-50
2023/09/21 09:03:27;;;;;;;6.05;3.95;;;;;;;;;;5074736;28;20329;-41
2023/09/21 09:06:01;;;;;;;5.03;4.25;;;;;;;;;;5070910;28;20367;-42
2023/09/21 09:08:30;;;;;;;8.23;4.43;;;;;;;;;;5080182;28;20032;-43
2023/09/21 09:10:57;;;;;;;6.88;4.50;;;;;;;;;;5074563;28;20040;-43
2023/09/21 09:13:33;;;;;;;4.68;4.22;;;;;;;;;;5065920;28;20025;-44
2023/09/21 09:16:00;;;;;;;7.78;4.47;;;;;;;;;;5068919;28;20040;-39
2023/09/21 09:18:27;;;;;;;7.05;4.72;;;;;;;;;;5073473;28;20264;-43
2023/09/21 09:20:57;;;;;;;8.40;4.32;;;;;;;;;;5074543;28;20024;-40
2023/09/21 09:23:24;;;;;;;6.03;5.10;;;;;;;;;;5075674;28;20263;-39
2023/09/21 09:25:51;;;;;;;7.70;5.30;;;;;;;;;;5072118;28;20037;-39
2023/09/21 09:28:18;;;;;;;6.25;4.68;;;;;;;;;;5077256;28;20342;-41
2023/09/21 09:30:48;;;;;;;6.18;5.07;;;;;;;;;;5078486;28;20037;-41
2023/09/21 09:33:16;;;;;;;6.18;4.35;;;;;;;;;;5078047;28;20302;-43
2023/09/21 09:35:45;;;;;;;4.97;4.15;;;;;;;;;;5067461;28;20339;-40
2023/09/21 09:38:11;;;;;;;5.68;4.30;;;;;;;;;;5072458;28;20297;-40
2023/09/21 09:40:39;;;;;;;5.18;4.28;;;;;;;;;;5074512;28;20024;-38
2023/09/21 09:43:06;;;;;;;6.20;4.18;;;;;;;;;;5076296;28;20029;-43
2023/09/21 09:45:32;;;;;;;5.20;4.68;;;;;;;;;;5078162;28;20484;-41
2023/09/21 09:48:02;;;;;;;6.05;5.45;;;;;;;;;;5079387;28;20101;-40
2023/09/21 09:50:33;;;;;;;7.50;6.13;;;;;;;;;;5070740;28;20036;-42
2023/09/21 09:53:03;;;;;;;6.80;5.63;;;;;;;;;;5079446;28;20066;-42
2023/09/21 09:55:33;;;;;;;6.40;5.28;;;;;;;;;;5067030;28;20025;-40
2023/09/21 09:58:01;;;;;;;6.50;5.13;;;;;;;;;;5067597;28;20013;-41
2023/09/21 10:00:28;;;;;;;5.85;4.60;;;;;;;;;;5070714;28;20028;-39
2023/09/21 10:02:56;;;;;;;5.22;4.57;;;;;;;;;;5075568;28;20079;-39
2023/09/21 10:05:27;;;;;;;6.93;4.47;;;;;;;;;;5075806;28;20029;-41
2023/09/21 10:07:56;;;;;;;4.63;4.22;;;;;;;;;;5067348;28;20035;-39
2023/09/21 10:10:24;;;;;;;6.57;4.60;;;;;;;;;;5066756;28;20024;-39
2023/09/21 10:12:52;;;;;;;6.65;4.38;;;;;;;;;;5067358;28;20039;-38
2023/09/21 10:15:22;;;;;;;4.95;4.20;;;;;;;;;;5067053;28;20041;-42
2023/09/21 10:17:50;;;;;;;9.65;4.28;;;;;;;;;;5066965;28;20040;-39
2023/09/21 10:20:32;;;;;;;6.00;4.10;;;;;;;;;;5066731;28;20061;-41
2023/09/21 10:23:02;;;;;;;6.85;3.90;;;;;;;;;;5066892;28;20091;-38
2023/09/21 10:25:41;;;;;;;19.23;5.38;;;;;;;;;;5066992;28;20070;-39
2023/09/21 10:28:27;;;;;;;9.10;4.93;;;;;;;;;;5077739;28;20036;-40
2023/09/21 10:30:54;;;;;;;13.70;5.10;;;;;;;;;;5067369;28;20025;-43
2023/09/21 10:33:25;;;;;;;7.47;5.40;;;;;;;;;;5067127;28;20025;-45
2023/09/21 10:35:53;;;;;;;11.98;6.47;;;;;;;;;;5072013;28;20355;-47
2023/09/21 10:38:19;;;;;;;11.68;7.18;;;;;;;;;;5074477;28;20028;-46
2023/09/21 10:40:46;;;;;;;10.73;7.13;;;;;;;;;;5072098;28;20029;-38
2023/09/21 10:43:31;;;;;;;16.00;7.28;;;;;;;;;;5066565;28;20201;-40
2023/09/21 10:46:00;;;;;;;10.77;6.13;;;;;;;;;;5066702;28;20037;-41
2023/09/21 10:48:27;;;;;;;17.35;6.97;;;;;;;;;;5085607;28;20043;-41
2023/09/21 10:50:54;;;;;;;51.05;7.88;;;;;;;;;;5086103;28;20350;-46
2023/09/21 10:53:23;;;;;;;17.02;7.28;;;;;;;;;;5086283;28;20059;-41
2023/09/21 10:55:52;;;;;;;19.40;7.10;;;;;;;;;;5086069;28;20055;-46
2023/09/21 10:58:19;;;;;;;15.70;8.63;;;;;;;;;;5086478;28;20292;-45
2023/09/21 11:00:47;;;;;;;16.40;7.40;;;;;;;;;;5085432;28;20028;-49
2023/09/21 11:03:15;;;;;;;20.23;7.65;;;;;;;;;;5066331;28;20060;-41
2023/09/21 11:05:42;;;;;;;17.13;7.55;;;;;;;;;;5066073;28;20029;-38
2023/09/21 11:08:10;;;;;;;13.27;7.63;;;;;;;;;;5066115;28;20037;-40
2023/09/21 11:10:37;;;;;;;22.85;8.25;;;;;;;;;;5066013;28;20224;-48
2023/09/21 11:13:05;;;;;;;14.80;7.65;;;;;;;;;;5065245;28;20024;-41
2023/09/21 11:15:32;;;;;;;15.60;7.93;;;;;;;;;;5063924;28;20090;-38
2023/09/21 11:17:59;;;;;;;18.08;7.10;;;;;;;;;;5063854;28;20028;-38
2023/09/21 11:20:26;;;;;;;224.35;20.85;;;;;;;;;;5063806;28;20024;-44
2023/09/21 11:22:54;;;;;;;472.85;34.65;;;;;;;;;;5064052;28;20309;-39
2023/09/21 11:25:22;;;;;;;46.00;9.25;;;;;;;;;;5063705;28;20029;-39
2023/09/21 11:27:50;;;;;;;33.45;7.50;;;;;;;;;;5064326;28;20021;-41
2023/09/21 11:30:16;;;;;;;34.95;7.00;;;;;;;;;;5065186;28;20036;-42
2023/09/21 11:32:44;;;;;;;32.88;6.55;;;;;;;;;;5065537;28;20048;-38
2023/09/21 11:35:10;;;;;;;21.70;8.00;;;;;;;;;;5065256;28;20028;-45
2023/09/21 11:37:37;;;;;;;19.55;7.05;;;;;;;;;;5065215;28;20056;-44
2023/09/21 11:40:22;;;;;;;12.35;5.18;;;;;;;;;;5065175;28;20025;-35
2023/09/21 11:42:50;;;;;;;10.43;5.10;;;;;;;;;;5065198;28;20332;-43
2023/09/21 11:45:17;;;;;;;9.27;5.07;;;;;;;;;;5079921;28;20028;-37
2023/09/21 11:47:48;;;;;;;9.98;4.95;;;;;;;;;;5096619;28;20026;-37
2023/09/21 11:50:27;;;;;;;15.88;5.18;;;;;;;;;;5105151;28;20062;-36
2023/09/21 11:52:57;;;;;;;12.45;5.30;;;;;;;;;;5105359;28;20039;-47
2023/09/21 11:55:25;;;;;;;16.13;5.47;;;;;;;;;;5105110;28;20016;-39
2023/09/21 11:57:54;;;;;;;14.02;5.53;;;;;;;;;;5105461;28;20024;-43
2023/09/21 12:00:27;;;;;;;11.00;5.22;;;;;;;;;;5105132;28;20020;-37
2023/09/21 12:02:56;;;;;;;20.15;6.95;;;;;;;;;;5104688;28;20048;-40
2023/09/21 12:05:23;;;;;;;11.48;5.47;;;;;;;;;;5105052;28;20036;-38
2023/09/21 12:07:50;;;;;;;10.70;5.35;;;;;;;;;;5105201;28;20296;-40
2023/09/21 12:10:16;;;;;;;14.38;5.95;;;;;;;;;;5104787;28;20036;-44
2023/09/21 12:12:46;;;;;;;9.77;5.97;;;;;;;;;;5105059;28;20039;-36
2023/09/21 12:15:13;;;;;;;12.20;5.78;;;;;;;;;;5104809;28;20050;-41
2023/09/21 12:21:00;;;;;;;8.13;5.03;;;;;;;;;;5104576;28;20027;-37
2023/09/21 13:05:50;;;;;;;11.88;5.20;;;;;;;;;;5087718;28;20330;-36
2023/09/21 13:27:42;;;;;;;14.45;6.00;;;;;;;;;;5104256;28;20019;-41
2023/09/21 13:30:09;;;;;;;21.58;6.43;;;;;;;;;;5103800;28;20043;-42
2023/09/21 13:32:36;;;;;;;13.95;6.05;;;;;;;;;;5103996;28;20035;-38
2023/09/21 13:35:04;;;;;;;18.65;6.07;;;;;;;;;;5102749;28;20028;-41
2023/09/21 13:37:32;;;;;;;18.48;5.65;;;;;;;;;;5103863;28;20048;-40
2023/09/21 13:39:59;;;;;;;18.75;6.20;;;;;;;;;;5103635;28;20087;-42
2023/09/21 13:42:26;;;;;;;20.40;6.75;;;;;;;;;;5103941;28;20016;-38
2023/09/21 13:44:52;;;;;;;17.90;6.88;;;;;;;;;;5103560;28;20028;-42
2023/09/21 13:47:19;;;;;;;28.35;7.03;;;;;;;;;;5103585;28;20031;-43
2023/09/21 13:49:46;;;;;;;31.75;7.40;;;;;;;;;;5103567;28;20024;-39
2023/09/21 13:52:15;;;;;;;18.23;6.60;;;;;;;;;;5103707;28;20028;-43
2023/09/21 13:54:42;;;;;;;19.38;7.18;;;;;;;;;;5103517;28;20031;-38
2023/09/21 13:57:11;;;;;;;22.08;6.90;;;;;;;;;;5103742;28;20044;-44
2023/09/21 13:59:39;;;;;;;26.52;7.53;;;;;;;;;;5103353;28;20339;-41
2023/09/21 14:02:08;;;;;;;31.63;7.00;;;;;;;;;;5103641;28;20208;-38
2023/09/21 14:04:35;;;;;;;17.58;6.63;;;;;;;;;;5103520;28;20032;-40
2023/09/21 14:07:03;;;;;;;18.65;6.50;;;;;;;;;;5103177;28;20048;-42
2023/09/21 14:09:29;;;;;;;17.50;6.90;;;;;;;;;;5103737;28;20028;-41
2023/09/21 14:11:58;;;;;;;22.48;6.78;;;;;;;;;;5103613;28;20031;-43
2023/09/21 14:14:25;;;;;;;12.00;5.80;;;;;;;;;;5106651;28;20225;-46
2023/09/21 14:16:52;;;;;;;14.05;6.45;;;;;;;;;;5107273;28;20271;-43
2023/09/21 15:01:54;;;;;;;20.67;7.95;;;;;;;;;;5106210;28;20035;-38
2023/09/21 15:17:13;;;;;;;23.92;7.47;;;;;;;;;;5105946;28;20023;-39
2023/09/21 15:39:05;;;;;;;72.63;11.50;;;;;;;;;;5105697;28;20027;-37
2023/09/21 15:41:33;;;;;;;71.13;11.82;;;;;;;;;;5105527;28;20020;-37
2023/09/21 15:44:03;;;;;;;74.97;11.73;;;;;;;;;;5105248;28;20054;-42
2023/09/21 15:46:30;;;;;;;62.50;11.35;;;;;;;;;;5105363;28;20016;-37
2023/09/21 15:48:56;;;;;;;64.55;11.80;;;;;;;;;;5105332;28;20031;-37
2023/09/21 15:51:23;;;;;;;59.88;10.13;;;;;;;;;;5105162;28;20020;-38
2023/09/21 15:53:50;;;;;;;67.07;11.10;;;;;;;;;;5105191;28;20043;-38
2023/09/21 15:56:17;;;;;;;61.53;10.52;;;;;;;;;;5105092;28;20091;-40
2023/09/21 15:58:43;;;;;;;61.70;11.27;;;;;;;;;;5105358;28;20024;-38
2023/09/21 16:01:11;;;;;;;65.13;10.75;;;;;;;;;;5103488;28;20020;-40
2023/09/21 16:03:38;;;;;;;46.38;11.27;;;;;;;;;;5104204;28;20103;-38
2023/09/21 16:06:04;;;;;;;55.67;10.70;;;;;;;;;;5104370;28;20124;-38
2023/09/21 16:08:31;;;;;;;56.35;11.13;;;;;;;;;;5104289;28;20078;-39
2023/09/21 16:10:58;;;;;;;33.70;9.52;;;;;;;;;;5104948;28;20088;-40
2023/09/21 16:13:25;;;;;;;45.00;9.85;;;;;;;;;;5105023;28;20200;-37
2023/09/21 16:15:52;;;;;;;38.00;9.25;;;;;;;;;;5104008;28;20027;-38
2023/09/21 16:31:11;;;;;;;23.45;7.88;;;;;;;;;;5104343;28;20219;-38
2023/09/21 16:40:04;;;;;;;20.77;7.30;;;;;;;;;;5104496;28;20026;-38
2023/09/21 16:55:26;;;;;;;23.05;7.38;;;;;;;;;;5104031;28;20357;-40
2023/09/21 16:57:53;;;;;;;28.75;7.60;;;;;;;;;;5104407;28;20023;-40
2023/09/21 17:03:29;;;;;;;27.58;7.35;;;;;;;;;;5103966;28;20027;-38
2023/09/21 17:05:56;;;;;;;18.48;7.07;;;;;;;;;;5103749;28;20071;-41
2023/09/21 17:28:20;;;;;;;13.75;6.45;;;;;;;;;;5104335;28;20020;-37
2023/09/21 17:30:47;;;;;;;14.10;6.07;;;;;;;;;;5103839;28;20212;-40
2023/09/21 17:46:19;;;;;;;12.90;6.55;;;;;;;;;;5103872;28;20027;-39
2023/09/21 17:48:46;;;;;;;10.15;6.07;;;;;;;;;;5107534;28;20036;-39
2023/09/21 17:51:13;;;;;;;11.20;5.93;;;;;;;;;;5107268;28;20312;-42
2023/09/21 17:53:39;;;;;;;12.35;5.97;;;;;;;;;;5107573;28;20031;-45
2023/09/21 17:56:06;;;;;;;9.02;6.20;;;;;;;;;;5107576;28;20039;-41
2023/09/21 17:58:34;;;;;;;9.52;6.03;;;;;;;;;;5107245;28;20300;-44
2023/09/21 18:01:01;;;;;;;13.85;6.35;;;;;;;;;;5107600;28;20066;-38
2023/09/21 18:03:28;;;;;;;9.82;5.30;;;;;;;;;;5107877;28;20063;-41
2023/09/21 18:05:55;;;;;;;15.15;6.20;;;;;;;;;;5106970;28;20298;-42
2023/09/21 18:08:24;;;;;;;24.95;6.18;;;;;;;;;;5103464;28;20036;-39
2023/09/21 18:10:51;;;;;;;21.27;6.13;;;;;;;;;;5095601;28;20335;-40